Time;durP1;ratioP1;P1;durP2;ratioP2;P2;SDS_P1;SDS_P2;PMS_P1;PMS_P2;Temp;Humidity;BMP_temperature;BMP_pressure;BME280_temperature;BME280_humidity;BME280_pressure;Samples;Min_cycle;Max_cycle;Signal;HPM_P1;HPM_P2
2021/07/05 00:01:54;;;;;;;4.57;2.70;;;;;;;17.20;74.25;99256.63;4974345;28;20043;-66
2021/07/05 00:04:22;;;;;;;5.95;2.20;;;;;;;17.22;74.07;99261.81;4973804;28;20446;-66
2021/07/05 00:06:47;;;;;;;3.90;2.20;;;;;;;17.22;74.21;99256.59;4975203;28;20038;-65
2021/07/05 00:09:15;;;;;;;5.40;2.25;;;;;;;17.22;74.33;99253.97;4975642;28;20035;-65
2021/07/05 00:11:43;;;;;;;4.50;2.67;;;;;;;17.21;74.42;99250.47;4975375;28;20042;-66
2021/07/05 00:14:09;;;;;;;5.85;2.40;;;;;;;17.21;74.17;99250.47;4975401;28;20027;-65
2021/07/05 00:16:38;;;;;;;4.57;2.47;;;;;;;17.22;74.35;99252.19;4975406;28;20054;-65
2021/07/05 00:19:08;;;;;;;4.50;2.67;;;;;;;17.22;74.31;99256.59;4975079;28;20035;-65
2021/07/05 00:21:34;;;;;;;5.82;2.60;;;;;;;17.22;74.30;99249.56;4975160;28;20039;-65
2021/07/05 00:24:08;;;;;;;6.93;2.50;;;;;;;17.23;74.47;99250.44;4973911;28;20043;-65
2021/07/05 00:26:34;;;;;;;3.92;2.55;;;;;;;17.22;74.42;99254.81;4974133;28;20154;-65
2021/07/05 00:29:08;;;;;;;3.97;2.20;;;;;;;17.22;74.44;99246.97;4975334;28;20118;-65
2021/07/05 00:31:38;;;;;;;11.10;3.10;;;;;;;17.23;74.51;99247.84;4957616;28;20395;-65
2021/07/05 00:34:07;;;;;;;5.72;2.55;;;;;;;17.23;74.26;99246.06;4975333;28;20075;-64
2021/07/05 00:36:35;;;;;;;4.88;2.63;;;;;;;17.23;74.41;99239.97;4975430;28;20047;-65
2021/07/05 00:39:06;;;;;;;7.65;2.80;;;;;;;17.23;74.83;99232.97;4974557;28;20473;-65
2021/07/05 00:41:40;;;;;;;6.22;2.50;;;;;;;17.23;74.66;99237.34;4973819;28;20039;-65
2021/07/05 00:44:14;;;;;;;6.93;2.42;;;;;;;17.23;74.45;99245.22;4974128;28;20125;-66
2021/07/05 00:46:48;;;;;;;;;;;;;;;17.20;74.40;99248.78;4973808;28;20410;-66
2021/07/05 00:49:21;;;;;;;10.95;2.78;;;;;;;17.21;74.65;99245.22;4990479;28;19980;-66
2021/07/05 00:51:53;;;;;;;7.18;2.85;;;;;;;17.22;74.47;99246.13;4974368;28;20035;-66
2021/07/05 00:54:24;;;;;;;6.15;2.47;;;;;;;17.22;74.60;99246.13;4973878;28;20050;-66
2021/07/05 00:56:55;;;;;;;8.13;3.00;;;;;;;17.21;74.50;99258.31;4973500;28;20129;-66
2021/07/05 00:59:29;;;;;;;5.45;2.80;;;;;;;17.22;74.88;99248.72;4974732;28;20106;-66
2021/07/05 01:02:03;;;;;;;4.28;2.20;;;;;;;17.22;74.37;99249.56;4973282;28;20057;-66
2021/07/05 01:04:36;;;;;;;7.53;2.60;;;;;;;17.23;74.84;99263.53;4974358;28;20391;-66
2021/07/05 01:07:09;;;;;;;4.73;2.40;;;;;;;17.23;74.73;99280.09;4974625;28;20324;-66
2021/07/05 01:09:37;;;;;;;6.87;2.50;;;;;;;17.21;74.77;99287.13;4974170;28;20034;-67
2021/07/05 01:12:09;;;;;;;4.63;2.58;;;;;;;17.19;74.56;99281.09;4974346;28;20416;-66
2021/07/05 01:14:38;;;;;;;5.07;1.80;;;;;;;17.14;74.53;99281.19;4973866;28;20043;-67
2021/07/05 01:17:16;;;;;;;2.75;1.80;;;;;;;17.10;74.51;99273.44;4974710;28;20038;-66
2021/07/05 01:19:46;;;;;;;4.93;2.00;;;;;;;17.07;74.62;99281.34;4974560;28;20046;-67
2021/07/05 01:22:16;;;;;;;2.47;1.83;;;;;;;17.04;74.60;99275.31;4973246;28;20027;-66
2021/07/05 01:24:43;;;;;;;4.05;2.15;;;;;;;17.02;74.72;99274.50;4974816;28;20035;-67
2021/07/05 01:27:12;;;;;;;3.05;1.90;;;;;;;17.00;74.77;99273.66;4974518;28;20487;-67
2021/07/05 01:29:44;;;;;;;2.35;1.90;;;;;;;16.96;74.81;99273.78;4974681;28;20450;-67
2021/07/05 01:32:15;;;;;;;2.00;1.70;;;;;;;16.94;74.56;99273.75;4974382;28;20066;-66
2021/07/05 01:34:41;;;;;;;4.55;2.10;;;;;;;16.93;74.51;99282.50;4974302;28;20043;-66
2021/07/05 01:37:10;;;;;;;2.75;1.67;;;;;;;16.91;74.74;99268.56;4975067;28;20375;-66
2021/07/05 01:39:41;;;;;;;2.35;1.75;;;;;;;16.90;74.50;99264.25;4974167;28;20110;-67
2021/07/05 01:42:12;;;;;;;4.07;1.98;;;;;;;16.87;74.50;99272.19;4974453;28;20064;-66
2021/07/05 01:44:43;;;;;;;3.75;1.90;;;;;;;16.84;74.60;99267.84;4972863;28;20050;-66
2021/07/05 01:47:14;;;;;;;1.75;1.40;;;;;;;16.84;74.60;99274.88;4973815;28;20518;-66
2021/07/05 01:49:45;;;;;;;2.17;1.60;;;;;;;16.83;74.52;99267.91;4974352;28;20073;-67
2021/07/05 01:52:14;;;;;;;4.32;1.65;;;;;;;16.82;74.59;99279.25;4974199;28;20126;-66
2021/07/05 01:54:45;;;;;;;3.17;2.15;;;;;;;16.83;74.63;99286.22;4973114;28;20097;-66
2021/07/05 01:57:26;;;;;;;2.70;1.70;;;;;;;16.81;74.54;99298.47;4977339;28;20038;-66
2021/07/05 02:00:00;;;;;;;3.38;1.88;;;;;;;16.80;74.71;99294.13;4976448;28;20038;-66
2021/07/05 02:02:31;;;;;;;1.83;1.50;;;;;;;16.79;74.61;99301.13;4978067;28;20057;-66
2021/07/05 02:05:05;;;;;;;2.00;1.50;;;;;;;16.78;74.49;99298.53;4976994;28;20078;-66
2021/07/05 02:07:36;;;;;;;5.88;1.80;;;;;;;16.75;74.39;99295.09;4976617;28;20042;-66
2021/07/05 02:10:10;;;;;;;3.53;2.13;;;;;;;16.73;74.48;99286.44;4977685;28;20041;-66
2021/07/05 02:12:41;;;;;;;1.90;1.50;;;;;;;16.74;74.41;99277.66;4977853;28;20054;-66
2021/07/05 02:15:14;;;;;;;4.18;1.63;;;;;;;16.73;74.61;99281.19;4977743;28;20093;-66
2021/07/05 02:17:42;;;;;;;1.85;1.40;;;;;;;16.73;74.55;99280.31;4977694;28;20121;-68
2021/07/05 02:20:19;;;;;;;4.03;2.22;;;;;;;16.73;74.52;99282.94;4976482;28;20042;-67
2021/07/05 02:22:45;;;;;;;4.10;1.95;;;;;;;16.72;74.43;99289.94;4975991;28;20053;-65
2021/07/05 02:25:18;;;;;;;4.00;1.38;;;;;;;16.71;74.69;99292.56;4975966;28;20039;-66
2021/07/05 02:27:47;;;;;;;3.28;1.73;;;;;;;16.72;74.59;99296.91;4977295;28;20047;-66
2021/07/05 02:30:20;;;;;;;1.83;1.48;;;;;;;16.70;74.45;99294.34;4977268;28;20059;-66
2021/07/05 02:32:53;;;;;;;2.03;1.70;;;;;;;16.69;74.58;99297.84;4977373;28;20043;-66
2021/07/05 02:35:24;;;;;;;5.13;2.13;;;;;;;16.67;74.48;99291.78;4976006;28;20041;-67
2021/07/05 02:37:59;;;;;;;4.10;1.70;;;;;;;16.67;74.52;99291.78;4977634;28;20053;-66
2021/07/05 02:40:32;;;;;;;1.85;1.75;;;;;;;16.67;74.83;99298.75;4977301;28;20117;-66
2021/07/05 02:43:03;;;;;;;3.10;1.92;;;;;;;16.65;74.63;99295.34;4976910;28;20438;-66
2021/07/05 02:45:35;;;;;;;4.25;2.35;;;;;;;16.65;74.42;99314.50;4975823;28;20042;-66
2021/07/05 02:48:06;;;;;;;5.93;1.80;;;;;;;16.63;74.46;99308.44;4977001;28;20050;-67
2021/07/05 02:50:42;;;;;;;5.18;2.22;;;;;;;16.62;74.45;99314.56;4976118;28;20117;-66
2021/07/05 02:53:14;;;;;;;5.15;2.00;;;;;;;16.60;74.47;99311.09;4975645;28;20060;-67
2021/07/05 02:55:43;;;;;;;2.38;1.80;;;;;;;16.59;74.49;99310.25;4975822;28;20027;-67
2021/07/05 02:58:12;;;;;;;3.80;2.10;;;;;;;16.58;74.35;99313.75;4975533;28;20042;-66
2021/07/05 03:00:46;;;;;;;4.93;2.17;;;;;;;16.58;74.56;99320.75;4959366;28;20061;-66
2021/07/05 03:03:19;;;;;;;6.15;1.92;;;;;;;16.58;74.45;99315.53;4976915;28;20047;-66
2021/07/05 03:05:51;;;;;;;5.65;1.90;;;;;;;16.57;74.56;99319.03;4976699;28;20050;-66
2021/07/05 03:08:25;;;;;;;3.13;2.00;;;;;;;16.56;74.61;99309.47;4975027;28;20039;-66
2021/07/05 03:10:51;;;;;;;4.95;2.00;;;;;;;16.57;74.49;99308.56;4976586;28;20105;-65
2021/07/05 03:13:18;;;;;;;1.83;1.70;;;;;;;16.56;74.31;99305.06;4959394;28;20558;-66
2021/07/05 03:15:54;;;;;;;3.20;1.83;;;;;;;16.54;74.58;99301.63;4976603;28;20043;-66
2021/07/05 03:18:22;;;;;;;3.50;2.03;;;;;;;16.54;74.34;99300.78;4976717;28;20035;-65
2021/07/05 03:20:51;;;;;;;4.35;2.17;;;;;;;16.53;74.49;99297.28;4975170;28;20035;-67
2021/07/05 03:23:25;;;;;;;3.47;2.22;;;;;;;16.52;74.47;99300.78;4975046;28;20027;-67
2021/07/05 03:25:55;;;;;;;3.88;2.33;;;;;;;16.50;74.43;99305.22;4976288;28;20047;-67
2021/07/05 03:28:25;;;;;;;4.53;2.40;;;;;;;16.50;74.28;99305.22;4959379;28;20035;-67
2021/07/05 03:30:54;;;;;;;5.22;2.60;;;;;;;16.49;74.37;99300.00;4975021;28;20034;-67
2021/07/05 03:33:28;;;;;;;4.57;2.58;;;;;;;16.48;74.63;99296.53;4975139;28;20509;-67
2021/07/05 03:35:57;;;;;;;3.53;2.03;;;;;;;16.47;74.39;99300.03;4976065;28;20046;-67
2021/07/05 03:38:25;;;;;;;3.35;2.40;;;;;;;16.46;74.25;99298.31;4975023;28;20039;-67
2021/07/05 03:40:53;;;;;;;4.95;2.70;;;;;;;16.46;74.40;99297.44;4974768;28;20039;-67
2021/07/05 03:43:24;;;;;;;6.03;2.20;;;;;;;16.45;74.53;99299.22;4975599;28;20150;-67
2021/07/05 03:45:58;;;;;;;6.13;2.30;;;;;;;16.43;74.44;99306.22;4974739;28;20035;-67
2021/07/05 03:48:29;;;;;;;4.70;2.63;;;;;;;16.43;74.30;99307.06;4975662;28;20081;-67
2021/07/05 03:51:02;;;;;;;4.28;2.53;;;;;;;16.43;74.43;99304.44;4975221;28;20042;-67
2021/07/05 03:53:31;;;;;;;7.30;3.22;;;;;;;16.42;74.17;99296.66;4975982;28;20027;-67
2021/07/05 03:55:58;;;;;;;6.75;3.15;;;;;;;16.42;74.36;99297.53;4975836;28;20050;-67
2021/07/05 03:58:34;;;;;;;3.83;2.38;;;;;;;16.41;74.33;99294.91;4974223;28;20034;-67
2021/07/05 04:01:07;;;;;;;5.55;3.33;;;;;;;16.41;74.43;99290.56;4975631;28;20089;-67
2021/07/05 04:03:36;;;;;;;6.43;3.27;;;;;;;16.41;74.29;99292.31;4973824;28;20499;-67
2021/07/05 04:06:04;;;;;;;7.68;3.47;;;;;;;16.40;74.29;99295.81;4974183;28;20042;-67
2021/07/05 04:08:38;;;;;;;8.10;3.30;;;;;;;16.39;74.19;99288.84;4975672;28;20383;-67
2021/07/05 04:11:09;;;;;;;9.48;4.63;;;;;;;16.39;74.27;99281.00;4975585;28;20033;-67
2021/07/05 04:13:41;;;;;;;8.35;4.15;;;;;;;16.40;74.22;99285.34;4974182;28;20100;-67
2021/07/05 04:16:12;;;;;;;11.98;4.25;;;;;;;16.38;74.05;99282.78;4975708;28;20114;-67
2021/07/05 04:18:46;;;;;;;7.40;3.83;;;;;;;16.38;74.06;99280.16;4974929;28;20031;-67
2021/07/05 04:21:16;;;;;;;11.38;4.25;;;;;;;16.38;74.35;99269.72;4975080;28;20109;-67
2021/07/05 04:23:50;;;;;;;5.47;3.90;;;;;;;16.38;74.28;99274.06;4973947;28;20039;-67
2021/07/05 04:26:21;;;;;;;5.68;3.30;;;;;;;16.38;74.14;99271.44;4975193;28;20046;-67
2021/07/05 04:28:50;;;;;;;6.57;4.35;;;;;;;16.37;74.40;99275.81;4974504;28;20045;-67
2021/07/05 04:31:20;;;;;;;7.22;3.60;;;;;;;16.37;74.25;99290.63;4974260;28;20035;-67
2021/07/05 04:33:48;;;;;;;6.35;3.47;;;;;;;16.36;74.10;99296.75;4974177;28;20445;-68
2021/07/05 04:36:20;;;;;;;8.07;4.00;;;;;;;16.35;74.31;99287.22;4973654;28;20039;-67
2021/07/05 04:38:54;;;;;;;5.47;3.45;;;;;;;16.36;74.34;99283.69;4974958;28;20049;-67
2021/07/05 04:41:22;;;;;;;5.97;3.78;;;;;;;16.36;74.21;99283.69;4974529;28;20031;-68
2021/07/05 04:43:53;;;;;;;9.68;4.20;;;;;;;16.36;74.15;99281.94;4973202;28;20039;-67
2021/07/05 04:46:23;;;;;;;9.23;4.53;;;;;;;16.35;74.06;99282.84;4975025;28;20043;-67
2021/07/05 04:48:54;;;;;;;8.88;4.18;;;;;;;16.34;74.32;99275.88;4973377;28;20517;-68
2021/07/05 04:51:25;;;;;;;10.32;4.10;;;;;;;16.33;74.15;99268.94;4957254;28;20035;-67
2021/07/05 04:53:57;;;;;;;7.65;3.60;;;;;;;16.35;74.12;99263.69;4975301;28;20038;-67
2021/07/05 04:56:30;;;;;;;6.95;3.67;;;;;;;16.33;74.17;99258.47;4973867;28;20031;-67
2021/07/05 04:59:05;;;;;;;7.90;4.10;;;;;;;16.33;73.96;99258.47;4973642;28;20045;-67
2021/07/05 05:01:34;;;;;;;5.85;3.47;;;;;;;16.33;74.23;99242.78;4972922;28;20046;-67
2021/07/05 05:04:05;;;;;;;6.60;3.50;;;;;;;16.33;74.32;99252.41;4973846;28;20031;-67
2021/07/05 05:06:38;;;;;;;9.82;3.65;;;;;;;16.34;74.38;99251.50;4957265;28;20030;-67
2021/07/05 05:09:11;;;;;;;6.50;3.28;;;;;;;16.33;74.25;99247.16;4974749;28;20070;-67
2021/07/05 05:11:42;;;;;;;9.93;3.40;;;;;;;16.32;74.33;99251.53;4973463;28;20035;-67
2021/07/05 05:14:17;;;;;;;3.97;3.05;;;;;;;16.31;74.22;99248.94;4974574;28;20113;-67
2021/07/05 05:16:48;;;;;;;;;;;;;;;16.28;74.33;99252.47;4974531;28;20129;-67
2021/07/05 05:19:22;;;;;;;7.65;3.15;;;;;;;16.27;74.15;99256.84;4973593;28;19984;-67
2021/07/05 05:21:53;;;;;;;7.30;3.20;;;;;;;16.29;74.08;99249.84;4974861;28;20434;-67
2021/07/05 05:24:28;;;;;;;13.75;4.20;;;;;;;16.29;74.14;99249.84;4957140;28;20414;-67
2021/07/05 05:27:01;;;;;;;4.93;3.20;;;;;;;16.28;73.92;99245.50;4957173;28;20414;-67
2021/07/05 05:29:32;;;;;;;3.83;2.80;;;;;;;16.29;74.19;99246.34;4974501;28;20418;-67
2021/07/05 05:32:03;;;;;;;9.35;4.50;;;;;;;16.28;74.29;99252.47;4977356;28;20087;-67
2021/07/05 05:34:35;;;;;;;6.88;3.35;;;;;;;16.29;74.33;99251.56;4977226;28;20478;-67
2021/07/05 05:37:09;;;;;;;8.02;3.30;;;;;;;16.28;74.12;99253.34;4978324;28;20100;-67
2021/07/05 05:39:43;;;;;;;7.22;3.08;;;;;;;16.28;74.15;99245.50;4976724;28;20043;-67
2021/07/05 05:42:15;;;;;;;6.43;3.00;;;;;;;16.29;74.27;99246.34;4977969;28;20041;-67
2021/07/05 05:44:46;;;;;;;6.13;3.67;;;;;;;16.27;74.04;99246.38;4977055;28;20042;-67
2021/07/05 05:47:19;;;;;;;6.25;3.15;;;;;;;16.28;74.15;99249.84;4976533;28;20042;-67
2021/07/05 05:49:53;;;;;;;7.82;3.22;;;;;;;16.28;74.09;99257.69;4976828;28;20039;-67
2021/07/05 05:52:26;;;;;;;8.02;3.33;;;;;;;16.28;74.30;99247.22;4960656;28;20510;-67
2021/07/05 05:54:57;;;;;;;7.45;3.20;;;;;;;16.28;74.24;99247.22;4977505;28;20042;-67
2021/07/05 05:57:36;;;;;;;7.07;2.67;;;;;;;16.28;74.29;99247.22;4978083;28;20113;-67
2021/07/05 06:00:17;;;;;;;7.68;3.33;;;;;;;16.28;74.35;99250.72;4977942;28;20513;-67
2021/07/05 06:02:49;;;;;;;7.50;3.13;;;;;;;16.29;74.28;99252.44;4978044;28;20042;-67
2021/07/05 06:05:21;;;;;;;5.07;2.83;;;;;;;16.29;74.30;99247.22;4960843;28;20035;-66
2021/07/05 06:07:53;;;;;;;10.30;2.92;;;;;;;16.31;74.17;99241.94;4976606;28;20042;-67
2021/07/05 06:10:27;;;;;;;7.45;3.13;;;;;;;16.32;74.21;99240.22;4977590;28;20027;-67
2021/07/05 06:12:58;;;;;;;10.35;3.10;;;;;;;16.32;74.34;99241.06;4977437;28;20042;-67
2021/07/05 06:15:31;;;;;;;5.38;3.17;;;;;;;16.32;74.28;99248.06;4976741;28;20049;-67
2021/07/05 06:18:06;;;;;;;7.03;3.10;;;;;;;16.33;74.27;99247.16;4977477;28;20030;-67
2021/07/05 06:20:37;;;;;;;5.70;3.03;;;;;;;16.32;74.22;99238.44;4976580;28;20038;-66
2021/07/05 06:23:18;;;;;;;4.00;2.72;;;;;;;16.32;74.19;99235.81;4977365;28;20043;-67
2021/07/05 06:25:50;;;;;;;5.95;2.80;;;;;;;16.34;74.29;99251.50;4976650;28;20066;-67
2021/07/05 06:28:24;;;;;;;10.50;3.45;;;;;;;16.34;74.23;99248.88;4977305;28;20062;-67
2021/07/05 06:30:59;;;;;;;6.20;2.92;;;;;;;16.34;74.22;99241.88;4975586;28;20035;-67
2021/07/05 06:33:30;;;;;;;7.57;2.75;;;;;;;16.34;74.38;99249.75;4977318;28;20089;-66
2021/07/05 06:36:06;;;;;;;10.88;2.58;;;;;;;16.34;74.21;99254.97;4977123;28;20043;-67
2021/07/05 06:38:41;;;;;;;4.65;2.92;;;;;;;16.35;74.37;99259.31;4976332;28;20039;-67
2021/07/05 06:41:15;;;;;;;8.73;2.95;;;;;;;16.35;74.15;99264.53;4976194;28;20428;-66
2021/07/05 06:43:49;;;;;;;6.38;3.35;;;;;;;16.37;74.40;99261.88;4974552;28;20039;-67
2021/07/05 06:46:23;;;;;;;5.50;3.03;;;;;;;16.36;74.31;99261.03;4976464;28;20410;-66
2021/07/05 06:48:57;;;;;;;5.47;3.25;;;;;;;16.36;74.28;99263.66;4977073;28;20069;-66
2021/07/05 06:51:33;;;;;;;9.27;3.63;;;;;;;16.38;74.26;99255.75;4975725;28;20478;-67
2021/07/05 06:54:09;;;;;;;4.75;2.45;;;;;;;16.37;74.21;99252.28;4975614;28;20545;-66
2021/07/05 06:56:49;;;;;;;7.47;2.72;;;;;;;16.37;74.19;99249.69;4959024;28;20068;-66
2021/07/05 06:59:20;;;;;;;8.63;2.90;;;;;;;16.39;74.20;99252.25;4976063;28;20045;-67
2021/07/05 07:01:49;;;;;;;8.48;2.53;;;;;;;16.39;74.41;99262.72;4975560;28;20061;-67
2021/07/05 07:04:22;;;;;;;8.57;2.55;;;;;;;16.40;74.27;99248.75;4975571;28;20034;-67
2021/07/05 07:06:56;;;;;;;6.53;2.35;;;;;;;16.39;74.32;99250.50;4975197;28;20042;-67
2021/07/05 07:09:32;;;;;;;5.43;3.17;;;;;;;16.39;74.08;99254.88;4976810;28;20074;-67
2021/07/05 07:12:06;;;;;;;6.72;3.15;;;;;;;16.40;74.26;99257.47;4975738;28;20066;-67
2021/07/05 07:14:40;;;;;;;7.35;2.92;;;;;;;16.39;74.27;99255.75;4976856;28;20070;-67
2021/07/05 07:17:34;;;;;;;7.68;2.80;;;;;;;16.40;74.36;99253.97;4976614;28;20085;-67
2021/07/05 07:20:08;;;;;;;6.57;2.88;;;;;;;16.39;74.17;99247.91;4959551;28;20133;-67
2021/07/05 07:22:42;;;;;;;4.65;2.60;;;;;;;16.40;74.41;99244.41;4976425;28;20085;-66
2021/07/05 07:25:21;;;;;;;6.18;2.75;;;;;;;16.39;74.18;99247.03;4976426;28;20045;-67
2021/07/05 07:27:52;;;;;;;5.97;2.85;;;;;;;16.39;74.33;99253.13;4975295;28;20050;-67
2021/07/05 07:30:32;;;;;;;4.93;2.47;;;;;;;16.40;74.38;99252.25;4975039;28;20030;-67
2021/07/05 07:33:03;;;;;;;7.97;2.75;;;;;;;16.41;74.18;99256.56;4975203;28;20043;-66
2021/07/05 07:35:36;;;;;;;6.63;2.72;;;;;;;16.41;74.40;99261.81;4975131;28;20049;-66
2021/07/05 07:38:12;;;;;;;7.80;2.58;;;;;;;16.43;74.29;99256.53;4974743;28;20038;-67
2021/07/05 07:40:46;;;;;;;5.28;2.92;;;;;;;16.42;74.37;99266.16;4974844;28;20035;-67
2021/07/05 07:43:17;;;;;;;5.72;2.75;;;;;;;16.42;74.30;99268.75;4975069;28;20035;-67
2021/07/05 07:45:50;;;;;;;5.72;2.70;;;;;;;16.42;74.24;99268.75;4975172;28;20038;-67
2021/07/05 07:48:24;;;;;;;5.45;2.97;;;;;;;16.42;74.23;99270.50;4975628;28;20097;-67
2021/07/05 07:50:58;;;;;;;;;;;;;;;16.40;74.24;99275.78;4976601;28;20039;-67
2021/07/05 07:53:31;;;;;;;5.38;2.65;;;;;;;16.40;74.27;99277.50;4975988;28;19937;-67
2021/07/05 07:56:02;;;;;;;8.17;2.73;;;;;;;16.40;74.41;99277.50;4975843;28;20035;-67
2021/07/05 07:58:36;;;;;;;6.00;2.03;;;;;;;16.40;74.05;99269.66;4975103;28;20286;-67
2021/07/05 08:01:10;;;;;;;5.00;2.70;;;;;;;16.39;74.40;99267.94;4974210;28;20042;-67
2021/07/05 08:03:43;;;;;;;7.32;2.72;;;;;;;16.39;74.30;99270.56;4975398;28;20051;-66
2021/07/05 08:06:20;;;;;;;6.73;2.73;;;;;;;16.40;74.33;99267.06;4974861;28;20030;-67
2021/07/05 08:08:55;;;;;;;9.70;3.33;;;;;;;16.38;74.35;99260.97;4974469;28;20030;-66
2021/07/05 08:11:29;;;;;;;6.05;2.30;;;;;;;16.39;74.30;99263.59;4975619;28;20065;-66
2021/07/05 08:14:05;;;;;;;5.57;2.22;;;;;;;16.40;74.38;99262.69;4974074;28;20030;-66
2021/07/05 08:16:38;;;;;;;7.97;2.50;;;;;;;16.41;74.24;99267.03;4975439;28;20546;-67
2021/07/05 08:19:11;;;;;;;5.53;2.58;;;;;;;16.40;74.46;99270.53;4975390;28;20050;-67
2021/07/05 08:21:46;;;;;;;7.28;2.63;;;;;;;16.41;74.37;99263.53;4974611;28;20049;-67
2021/07/05 08:24:19;;;;;;;5.65;3.65;;;;;;;16.41;74.43;99267.03;4975270;28;20119;-67
2021/07/05 08:26:54;;;;;;;;;;;;;;;16.39;74.34;99267.94;4974270;28;20045;-67
2021/07/05 08:29:25;;;;;;;3.72;2.60;;;;;;;16.39;74.45;99262.72;4975507;28;19998;-67
2021/07/05 08:32:04;;;;;;;6.43;2.88;;;;;;;16.39;74.45;99268.81;4975453;28;20145;-67
2021/07/05 08:34:37;;;;;;;5.95;2.75;;;;;;;16.40;74.17;99259.22;4974971;28;20522;-67
2021/07/05 08:37:11;;;;;;;4.17;2.20;;;;;;;16.39;74.34;99260.97;4973862;28;20047;-66
2021/07/05 08:39:44;;;;;;;6.68;2.63;;;;;;;16.38;74.27;99264.47;4975127;28;20043;-67
2021/07/05 08:42:21;;;;;;;5.25;3.00;;;;;;;16.40;74.30;99269.66;4975135;28;20035;-67
2021/07/05 08:44:52;;;;;;;7.60;2.42;;;;;;;16.39;74.21;99278.41;4973943;28;20122;-67
2021/07/05 08:47:34;;;;;;;4.97;2.58;;;;;;;16.40;74.22;99282.75;4973997;28;20557;-67
2021/07/05 08:50:02;;;;;;;6.07;2.88;;;;;;;16.39;74.28;99281.91;4973884;28;20042;-66
2021/07/05 08:52:42;;;;;;;5.40;2.40;;;;;;;16.39;74.14;99276.66;4974114;28;20077;-67
2021/07/05 08:55:16;;;;;;;5.25;2.70;;;;;;;16.39;74.08;99267.94;4974911;28;20462;-67
2021/07/05 08:57:50;;;;;;;5.13;3.00;;;;;;;16.39;74.11;99273.16;4957511;28;20042;-67
2021/07/05 09:00:29;;;;;;;5.97;2.58;;;;;;;16.38;74.17;99274.06;4973500;28;20051;-67
2021/07/05 09:03:01;;;;;;;5.88;2.25;;;;;;;16.39;73.89;99267.94;4974437;28;20046;-66
2021/07/05 09:05:37;;;;;;;5.63;2.50;;;;;;;16.39;74.09;99265.31;4974539;28;20039;-66
2021/07/05 09:08:10;;;;;;;4.03;2.22;;;;;;;16.39;73.91;99268.81;4974717;28;20034;-67
2021/07/05 09:10:51;;;;;;;5.03;2.35;;;;;;;16.40;74.01;99264.44;4973447;28;20046;-67
2021/07/05 09:13:30;;;;;;;4.93;2.00;;;;;;;16.40;74.00;99267.06;4957494;28;20398;-67
2021/07/05 09:16:04;;;;;;;5.15;2.50;;;;;;;16.40;73.95;99261.81;4973498;28;20045;-67
2021/07/05 09:18:47;;;;;;;4.85;2.50;;;;;;;16.40;73.96;99254.84;4974554;28;20078;-67
2021/07/05 09:21:26;;;;;;;6.88;2.33;;;;;;;16.40;73.93;99252.25;4974865;28;20039;-67
2021/07/05 09:24:09;;;;;;;4.63;2.25;;;;;;;16.39;73.96;99250.50;4974767;28;20031;-66
2021/07/05 09:26:43;;;;;;;5.28;2.50;;;;;;;16.40;73.75;99248.75;4973504;28;20047;-66
2021/07/05 09:29:21;;;;;;;4.55;2.13;;;;;;;16.40;73.72;99246.13;4974609;28;20129;-66
2021/07/05 09:32:00;;;;;;;3.00;2.10;;;;;;;16.39;73.75;99242.66;4974216;28;20575;-66
2021/07/05 09:34:37;;;;;;;4.57;2.35;;;;;;;16.40;73.76;99248.75;4974453;28;20035;-66
2021/07/05 09:37:31;;;;;;;5.65;2.13;;;;;;;16.40;73.74;99240.91;4974581;28;20045;-66
2021/07/05 09:40:10;;;;;;;4.55;2.22;;;;;;;16.41;73.89;99253.09;4965815;28;20081;-66
2021/07/05 09:42:49;;;;;;;4.13;2.38;;;;;;;16.40;73.72;99254.84;4974711;28;20041;-65
2021/07/05 09:45:31;;;;;;;5.47;2.58;;;;;;;16.39;73.73;99253.13;4973428;28;20549;-66
2021/07/05 09:48:16;;;;;;;8.07;2.50;;;;;;;16.40;73.74;99256.59;4973219;28;20041;-65
2021/07/05 09:50:42;;;;;;;5.60;2.17;;;;;;;16.40;73.81;99257.47;4973375;28;20414;-65
2021/07/05 09:53:48;;;;;;;6.25;2.28;;;;;;;16.39;73.99;99260.97;4972888;28;20038;-65
2021/07/05 09:56:34;;;;;;;2.90;2.05;;;;;;;16.40;73.71;99265.31;4914845;29;20180;-64
2021/07/05 09:59:15;;;;;;;7.53;2.70;;;;;;;16.42;73.91;99257.44;4970533;28;20051;-65
2021/07/05 10:01:54;;;;;;;4.35;2.53;;;;;;;16.42;73.91;99252.19;4974012;28;20047;-65
2021/07/05 10:04:32;;;;;;;3.42;2.10;;;;;;;16.42;73.93;99241.72;4973848;28;20039;-65
2021/07/05 10:07:00;;;;;;;7.80;2.75;;;;;;;16.43;73.81;99241.69;4974198;28;20038;-64
2021/07/05 10:09:35;;;;;;;3.45;2.90;;;;;;;16.43;73.84;99241.69;4974584;28;20038;-65
2021/07/05 10:12:20;;;;;;;4.40;2.95;;;;;;;16.45;74.00;99239.06;4957290;28;20039;-65
2021/07/05 10:15:16;;;;;;;3.70;2.60;;;;;;;16.45;73.97;99246.91;4972973;28;20046;-65
2021/07/05 10:17:46;;;;;;;4.47;2.55;;;;;;;16.46;74.15;99248.63;4962174;28;20050;-65
2021/07/05 10:20:23;;;;;;;6.43;3.03;;;;;;;16.47;74.19;99247.75;4960775;28;20046;-65
2021/07/05 10:22:52;;;;;;;6.60;2.40;;;;;;;16.49;74.27;99240.72;4977554;28;20035;-66
2021/07/05 10:25:27;;;;;;;4.95;2.53;;;;;;;16.48;74.07;99233.78;4976146;28;20034;-66
2021/07/05 10:27:59;;;;;;;3.30;2.80;;;;;;;16.47;74.10;99232.06;4975844;28;20180;-67
2021/07/05 10:30:33;;;;;;;4.78;2.40;;;;;;;16.48;74.19;99227.66;4976677;28;20407;-65
2021/07/05 10:33:07;;;;;;;3.28;2.63;;;;;;;16.47;74.03;99232.06;4977681;28;20126;-65
2021/07/05 10:36:02;;;;;;;4.38;2.40;;;;;;;16.48;74.22;99240.75;4976158;28;20043;-67
2021/07/05 10:38:41;;;;;;;4.30;2.47;;;;;;;16.47;74.19;99239.91;4975513;28;20129;-65
2021/07/05 10:41:12;;;;;;;5.25;2.45;;;;;;;16.47;74.23;99226.81;4977405;28;20039;-65
2021/07/05 10:44:04;;;;;;;5.88;2.35;;;;;;;16.49;74.08;99234.63;4975504;28;20035;-66
2021/07/05 10:46:53;;;;;;;3.50;2.50;;;;;;;16.48;74.17;99225.94;4975980;28;20093;-65
2021/07/05 10:49:27;;;;;;;8.77;2.60;;;;;;;16.48;74.31;99231.16;4977111;28;20081;-65
2021/07/05 10:51:59;;;;;;;3.55;2.30;;;;;;;16.50;74.48;99225.88;4975672;28;20041;-66
2021/07/05 10:54:51;;;;;;;5.95;2.78;;;;;;;16.49;74.22;99224.16;4975730;28;20038;-66
2021/07/05 10:57:22;;;;;;;5.57;3.05;;;;;;;16.50;74.38;99218.03;4975369;28;20057;-65
2021/07/05 10:59:54;;;;;;;6.72;2.63;;;;;;;16.51;74.54;99214.53;4975325;28;20034;-65
2021/07/05 11:02:33;;;;;;;4.00;2.38;;;;;;;16.50;74.14;99207.56;4977034;28;20105;-65
2021/07/05 11:05:25;;;;;;;5.20;2.58;;;;;;;16.50;74.51;99204.97;4976267;28;20086;-65
2021/07/05 11:08:13;;;;;;;3.38;2.30;;;;;;;16.50;74.57;99200.59;4969358;28;20403;-65
2021/07/05 11:10:47;;;;;;;3.45;2.63;;;;;;;16.50;74.57;99194.50;4976737;28;20089;-65
2021/07/05 11:13:30;;;;;;;4.05;2.30;;;;;;;16.49;74.48;99196.28;4976251;28;20046;-65
2021/07/05 11:16:06;;;;;;;3.55;2.30;;;;;;;16.50;74.45;99199.72;4976769;28;20070;-67
2021/07/05 11:18:42;;;;;;;4.38;2.17;;;;;;;16.50;74.45;99198.00;4976742;28;20058;-65
2021/07/05 11:21:23;;;;;;;3.47;2.28;;;;;;;16.51;74.47;99201.44;4975540;28;20043;-65
2021/07/05 11:23:55;;;;;;;3.30;2.30;;;;;;;16.51;74.22;99206.69;4975062;28;20443;-65
2021/07/05 11:26:35;;;;;;;3.55;2.15;;;;;;;16.50;74.45;99208.44;4976077;28;20090;-64
2021/07/05 11:29:20;;;;;;;4.03;2.72;;;;;;;16.52;74.40;99200.56;4976255;28;20058;-65
2021/07/05 11:31:57;;;;;;;3.38;2.28;;;;;;;16.50;74.48;99203.22;4975224;28;20042;-65
2021/07/05 11:34:34;;;;;;;4.85;2.10;;;;;;;16.51;74.64;99207.53;4975689;28;20046;-65
2021/07/05 11:37:14;;;;;;;3.55;2.30;;;;;;;16.53;74.68;99197.06;4976338;28;20067;-66
2021/07/05 11:39:48;;;;;;;2.70;2.15;;;;;;;16.52;74.68;99201.41;4975250;28;20398;-65
2021/07/05 11:42:36;;;;;;;2.67;2.30;;;;;;;16.53;74.70;99202.28;4975042;28;20121;-65
2021/07/05 11:45:10;;;;;;;5.65;2.50;;;;;;;16.53;74.76;99199.66;4975245;28;20039;-65
2021/07/05 11:47:47;;;;;;;2.97;2.30;;;;;;;16.53;74.75;99199.66;4975931;28;20121;-66
2021/07/05 11:50:25;;;;;;;2.72;1.90;;;;;;;16.54;74.73;99191.78;4974885;28;20038;-65
2021/07/05 11:52:59;;;;;;;3.50;2.40;;;;;;;16.54;74.54;99185.69;4975693;28;20115;-67
2021/07/05 11:55:34;;;;;;;4.40;2.10;;;;;;;16.53;74.71;99181.38;4975701;28;20042;-67
2021/07/05 11:58:14;;;;;;;2.65;2.28;;;;;;;16.54;74.62;99173.47;4975276;28;20050;-67
2021/07/05 12:00:45;;;;;;;4.65;2.35;;;;;;;16.54;74.59;99186.53;4974758;28;20043;-67
2021/07/05 12:03:18;;;;;;;2.00;1.80;;;;;;;16.55;74.61;99187.41;4975450;28;20075;-67
2021/07/05 12:06:00;;;;;;;3.85;2.47;;;;;;;16.55;74.54;99180.41;4958512;28;20053;-66